Aérodrome :
LOGIN :

S'inscrire | Disclaimer

   EN    FR    IT 

 










Légende :    VFR   VFR Marginal   IFR   IFR Intensif   IFR Très Intensif
Visi : 
Plafond : 
>= 8 km
>= 3000ft
5 à 8 km
1000 à 3000 ft
1500m à 5 km
500 à 1000 ft
800 à 1500m
200 à 500 ft
< 800m
< 200 ft
Symboles :   Orages  Brouillard  Fortes neiges  Fortes précipitations  Vent > 20 kt
SIGMETs :   Divers  Orages  Givrage  Turbulence  Onde Orograph.  Cendres Volcan.






- Altitude de l'aérodrome : 255 ft


ENGC - Gullfaks C oil platform

DERNIER METAR :
  • 241550Z 11007KT CAVOK 04/M05 Q1002 W05/S5

METARs EXPIRÉS :
  • 241450Z 10005KT CAVOK 05/M05 Q1003 W05/S5
  • 241420Z 10005KT CAVOK 05/M05 Q1004 W06/S5
  • 241350Z 08005KT 9999 FEW040 06/M04 Q1004 W06/S5

TAF TAF ENGC
Valide du 24 à 15h jusqu'au 25 à 15h UTC


2415/2515 08012KT 9999 FEW020 SCT040
BECMG 2418/2421 08025KT
BECMG 2509/2512 10015KT



MET'MAP, la Météo Aéronautique d'un coup d'oeil ! - Copyright ORBIFLY Décembre 2007 - Disclaimer

ORBIFLY MET'MAP TEAM :

Programmation & Développement : Alexandra Zaïnal
Sur une idée originale de : Baudouin d'Aumeries
Assistance à la programmation : Marc-Olivier Méhu
Soutien technique & logistique : Manuel Goepfert

Contact : metmap@orbifly.com




SOURCES & CREDITS :

   NOAA